sensor_id;sensor_type;location;lat;lon;timestamp;temperature;humidity
9861;DHT22;4969;52.304;4.968;2023-07-29T00:00:08;21.62;71.29
9861;DHT22;4969;52.304;4.968;2023-07-29T00:02:36;21.75;70.59
9861;DHT22;4969;52.304;4.968;2023-07-29T00:05:02;21.33;69.83
9861;DHT22;4969;52.304;4.968;2023-07-29T00:07:29;20.99;71.31
9861;DHT22;4969;52.304;4.968;2023-07-29T00:09:57;21.38;72.63
9861;DHT22;4969;52.304;4.968;2023-07-29T00:12:24;21.02;71.08
9861;DHT22;4969;52.304;4.968;2023-07-29T00:14:50;21.37;72.83
9861;DHT22;4969;52.304;4.968;2023-07-29T00:17:17;21.55;71.87
9861;DHT22;4969;52.304;4.968;2023-07-29T00:19:45;21.54;70.94
9861;DHT22;4969;52.304;4.968;2023-07-29T00:22:11;21.47;70.98
9861;DHT22;4969;52.304;4.968;2023-07-29T00:24:39;21.51;70.99
9861;DHT22;4969;52.304;4.968;2023-07-29T00:27:07;21.10;70.84
9861;DHT22;4969;52.304;4.968;2023-07-29T00:29:34;21.17;72.23
9861;DHT22;4969;52.304;4.968;2023-07-29T00:32:00;20.99;72.13
9861;DHT22;4969;52.304;4.968;2023-07-29T00:34:27;21.07;73.15
9861;DHT22;4969;52.304;4.968;2023-07-29T00:36:53;21.34;71.51
9861;DHT22;4969;52.304;4.968;2023-07-29T00:39:20;21.24;72.44
9861;DHT22;4969;52.304;4.968;2023-07-29T00:41:47;20.78;71.00
9861;DHT22;4969;52.304;4.968;2023-07-29T00:44:15;20.65;73.05
9861;DHT22;4969;52.304;4.968;2023-07-29T00:46:43;20.89;73.15
9861;DHT22;4969;52.304;4.968;2023-07-29T00:49:11;21.44;72.48
9861;DHT22;4969;52.304;4.968;2023-07-29T00:51:38;21.50;72.24
9861;DHT22;4969;52.304;4.968;2023-07-29T00:54:05;21.43;72.47
9861;DHT22;4969;52.304;4.968;2023-07-29T00:56:31;21.07;70.79
9861;DHT22;4969;52.304;4.968;2023-07-29T00:58:58;20.92;72.32
9861;DHT22;4969;52.304;4.968;2023-07-29T01:01:28;20.71;73.21
9861;DHT22;4969;52.304;4.968;2023-07-29T01:03:55;20.52;71.93
9861;DHT22;4969;52.304;4.968;2023-07-29T01:06:27;20.41;73.99
9861;DHT22;4969;52.304;4.968;2023-07-29T01:08:59;20.24;73.12
9861;DHT22;4969;52.304;4.968;2023-07-29T01:11:35;20.24;74.06
9861;DHT22;4969;52.304;4.968;2023-07-29T01:14:07;20.23;73.65
9861;DHT22;4969;52.304;4.968;2023-07-29T01:16:41;20.73;74.48
9861;DHT22;4969;52.304;4.968;2023-07-29T01:19:18;20.72;73.32
9861;DHT22;4969;52.304;4.968;2023-07-29T01:21:49;20.96;73.49
9861;DHT22;4969;52.304;4.968;2023-07-29T01:24:18;20.96;73.49
9861;DHT22;4969;52.304;4.968;2023-07-29T01:26:45;21.11;73.72
9861;DHT22;4969;52.304;4.968;2023-07-29T01:29:11;21.20;71.45
9861;DHT22;4969;52.304;4.968;2023-07-29T01:31:42;21.21;71.94
9861;DHT22;4969;52.304;4.968;2023-07-29T01:34:13;21.21;70.52
9861;DHT22;4969;52.304;4.968;2023-07-29T01:36:44;21.02;70.62
9861;DHT22;4969;52.304;4.968;2023-07-29T01:39:12;20.43;71.80
9861;DHT22;4969;52.304;4.968;2023-07-29T01:41:42;20.17;72.15
9861;DHT22;4969;52.304;4.968;2023-07-29T01:44:10;20.21;72.56
9861;DHT22;4969;52.304;4.968;2023-07-29T01:46:37;20.16;72.20
9861;DHT22;4969;52.304;4.968;2023-07-29T01:49:04;20.27;73.95
9861;DHT22;4969;52.304;4.968;2023-07-29T01:51:30;20.07;72.26
9861;DHT22;4969;52.304;4.968;2023-07-29T01:53:57;20.33;74.16
9861;DHT22;4969;52.304;4.968;2023-07-29T01:56:25;20.34;73.90
9861;DHT22;4969;52.304;4.968;2023-07-29T01:58:53;20.18;72.58
9861;DHT22;4969;52.304;4.968;2023-07-29T02:01:19;20.17;72.41
9861;DHT22;4969;52.304;4.968;2023-07-29T02:03:46;20.02;73.33
9861;DHT22;4969;52.304;4.968;2023-07-29T02:06:13;20.28;74.80
9861;DHT22;4969;52.304;4.968;2023-07-29T02:08:40;20.33;71.45
9861;DHT22;4969;52.304;4.968;2023-07-29T02:11:07;20.56;70.79
9861;DHT22;4969;52.304;4.968;2023-07-29T02:13:33;20.47;71.77
9861;DHT22;4969;52.304;4.968;2023-07-29T02:16:01;20.78;73.49
9861;DHT22;4969;52.304;4.968;2023-07-29T02:18:28;20.88;72.15
9861;DHT22;4969;52.304;4.968;2023-07-29T02:20:54;21.06;70.88
9861;DHT22;4969;52.304;4.968;2023-07-29T02:23:21;20.81;70.80
9861;DHT22;4969;52.304;4.968;2023-07-29T02:25:48;20.82;73.21
9861;DHT22;4969;52.304;4.968;2023-07-29T02:28:14;20.41;73.35
9861;DHT22;4969;52.304;4.968;2023-07-29T02:30:41;20.61;72.93
9861;DHT22;4969;52.304;4.968;2023-07-29T02:33:11;20.61;72.07
9861;DHT22;4969;52.304;4.968;2023-07-29T02:35:38;20.72;70.91
9861;DHT22;4969;52.304;4.968;2023-07-29T02:38:04;20.93;73.62
9861;DHT22;4969;52.304;4.968;2023-07-29T02:40:31;20.92;71.84
9861;DHT22;4969;52.304;4.968;2023-07-29T02:42:57;20.34;71.35
9861;DHT22;4969;52.304;4.968;2023-07-29T02:45:24;20.48;73.77
9861;DHT22;4969;52.304;4.968;2023-07-29T02:47:51;20.63;71.91
9861;DHT22;4969;52.304;4.968;2023-07-29T02:50:20;20.52;73.13
9861;DHT22;4969;52.304;4.968;2023-07-29T02:52:46;20.48;72.26
9861;DHT22;4969;52.304;4.968;2023-07-29T02:55:13;20.85;73.72
9861;DHT22;4969;52.304;4.968;2023-07-29T02:57:39;20.82;71.58
9861;DHT22;4969;52.304;4.968;2023-07-29T03:00:07;20.43;72.22
9861;DHT22;4969;52.304;4.968;2023-07-29T03:02:34;20.65;74.07
9861;DHT22;4969;52.304;4.968;2023-07-29T03:05:01;20.76;72.19
9861;DHT22;4969;52.304;4.968;2023-07-29T03:07:30;20.56;73.31
9861;DHT22;4969;52.304;4.968;2023-07-29T03:09:56;20.07;72.46
9861;DHT22;4969;52.304;4.968;2023-07-29T03:12:23;20.31;74.88
9861;DHT22;4969;52.304;4.968;2023-07-29T03:14:49;20.14;72.82
9861;DHT22;4969;52.304;4.968;2023-07-29T03:17:16;20.73;74.24
9861;DHT22;4969;52.304;4.968;2023-07-29T03:19:43;21.10;72.96
9861;DHT22;4969;52.304;4.968;2023-07-29T03:22:09;20.75;72.30
9861;DHT22;4969;52.304;4.968;2023-07-29T03:24:37;20.37;72.14
9861;DHT22;4969;52.304;4.968;2023-07-29T03:27:04;20.44;72.99
9861;DHT22;4969;52.304;4.968;2023-07-29T03:29:32;20.28;74.18
9861;DHT22;4969;52.304;4.968;2023-07-29T03:31:58;20.43;73.90
9861;DHT22;4969;52.304;4.968;2023-07-29T03:34:25;20.67;73.83
9861;DHT22;4969;52.304;4.968;2023-07-29T03:36:52;20.98;73.61
9861;DHT22;4969;52.304;4.968;2023-07-29T03:39:19;20.92;71.11
9861;DHT22;4969;52.304;4.968;2023-07-29T03:41:48;20.65;72.46
9861;DHT22;4969;52.304;4.968;2023-07-29T03:44:14;20.38;72.87
9861;DHT22;4969;52.304;4.968;2023-07-29T03:46:42;21.02;72.00
9861;DHT22;4969;52.304;4.968;2023-07-29T03:49:08;20.65;71.87
9861;DHT22;4969;52.304;4.968;2023-07-29T03:51:35;21.03;72.93
9861;DHT22;4969;52.304;4.968;2023-07-29T03:54:02;20.89;71.75
9861;DHT22;4969;52.304;4.968;2023-07-29T03:56:29;20.59;72.64
9861;DHT22;4969;52.304;4.968;2023-07-29T03:59:03;20.49;72.00
9861;DHT22;4969;52.304;4.968;2023-07-29T04:01:30;21.17;72.24
9861;DHT22;4969;52.304;4.968;2023-07-29T04:03:58;21.03;71.77
9861;DHT22;4969;52.304;4.968;2023-07-29T04:06:25;20.56;71.92
9861;DHT22;4969;52.304;4.968;2023-07-29T04:08:51;20.89;72.53
9861;DHT22;4969;52.304;4.968;2023-07-29T04:11:18;21.40;72.00
9861;DHT22;4969;52.304;4.968;2023-07-29T04:13:45;21.38;70.19
9861;DHT22;4969;52.304;4.968;2023-07-29T04:16:13;21.17;71.90
9861;DHT22;4969;52.304;4.968;2023-07-29T04:18:39;20.76;72.36
9861;DHT22;4969;52.304;4.968;2023-07-29T04:21:06;21.13;70.92
9861;DHT22;4969;52.304;4.968;2023-07-29T04:23:33;21.38;70.89
9861;DHT22;4969;52.304;4.968;2023-07-29T04:26:00;21.28;69.20
9861;DHT22;4969;52.304;4.968;2023-07-29T04:28:27;20.83;71.38
9861;DHT22;4969;52.304;4.968;2023-07-29T04:30:53;20.93;70.48
9861;DHT22;4969;52.304;4.968;2023-07-29T04:33:21;21.03;71.35
9861;DHT22;4969;52.304;4.968;2023-07-29T04:35:48;20.86;71.17
9861;DHT22;4969;52.304;4.968;2023-07-29T04:38:15;20.71;71.60
9861;DHT22;4969;52.304;4.968;2023-07-29T04:40:41;20.49;72.60
9861;DHT22;4969;52.304;4.968;2023-07-29T04:43:08;20.52;73.10
9861;DHT22;4969;52.304;4.968;2023-07-29T04:45:34;20.72;73.12
9861;DHT22;4969;52.304;4.968;2023-07-29T04:48:01;20.75;71.95
9861;DHT22;4969;52.304;4.968;2023-07-29T04:50:29;21.21;70.75
9861;DHT22;4969;52.304;4.968;2023-07-29T04:52:56;20.89;72.90
9861;DHT22;4969;52.304;4.968;2023-07-29T04:55:23;21.06;71.93
9861;DHT22;4969;52.304;4.968;2023-07-29T04:57:50;21.00;70.47
9861;DHT22;4969;52.304;4.968;2023-07-29T05:00:17;21.17;70.21
9861;DHT22;4969;52.304;4.968;2023-07-29T05:02:44;21.21;72.31
9861;DHT22;4969;52.304;4.968;2023-07-29T05:05:11;21.02;69.71
9861;DHT22;4969;52.304;4.968;2023-07-29T05:07:39;21.23;72.13
9861;DHT22;4969;52.304;4.968;2023-07-29T05:10:06;21.28;71.49
9861;DHT22;4969;52.304;4.968;2023-07-29T05:12:33;21.47;70.32
9861;DHT22;4969;52.304;4.968;2023-07-29T05:15:00;21.07;70.86
9861;DHT22;4969;52.304;4.968;2023-07-29T05:17:26;21.09;70.76
9861;DHT22;4969;52.304;4.968;2023-07-29T05:19:53;20.35;72.43
9861;DHT22;4969;52.304;4.968;2023-07-29T05:22:20;20.40;72.57
9861;DHT22;4969;52.304;4.968;2023-07-29T05:24:47;20.56;74.30
9861;DHT22;4969;52.304;4.968;2023-07-29T05:27:14;20.85;73.25
9861;DHT22;4969;52.304;4.968;2023-07-29T05:29:41;20.95;72.94
9861;DHT22;4969;52.304;4.968;2023-07-29T05:32:07;21.06;72.22
9861;DHT22;4969;52.304;4.968;2023-07-29T05:34:34;20.88;71.26
9861;DHT22;4969;52.304;4.968;2023-07-29T05:37:00;21.16;71.96
9861;DHT22;4969;52.304;4.968;2023-07-29T05:39:27;21.45;71.78
9861;DHT22;4969;52.304;4.968;2023-07-29T05:41:55;21.71;70.92
9861;DHT22;4969;52.304;4.968;2023-07-29T05:44:22;21.76;70.47
9861;DHT22;4969;52.304;4.968;2023-07-29T05:46:48;21.98;69.88
9861;DHT22;4969;52.304;4.968;2023-07-29T05:49:15;22.12;69.34
9861;DHT22;4969;52.304;4.968;2023-07-29T05:51:42;22.19;69.11
9861;DHT22;4969;52.304;4.968;2023-07-29T05:54:08;22.28;68.80
9861;DHT22;4969;52.304;4.968;2023-07-29T05:56:35;22.30;68.67
9861;DHT22;4969;52.304;4.968;2023-07-29T05:59:03;22.47;68.09
9861;DHT22;4969;52.304;4.968;2023-07-29T06:01:30;22.53;67.85
9861;DHT22;4969;52.304;4.968;2023-07-29T06:03:56;22.48;68.00
9861;DHT22;4969;52.304;4.968;2023-07-29T06:06:23;22.54;67.84
9861;DHT22;4969;52.304;4.968;2023-07-29T06:08:50;22.61;67.42
9861;DHT22;4969;52.304;4.968;2023-07-29T06:11:16;22.58;67.51
9861;DHT22;4969;52.304;4.968;2023-07-29T06:13:43;22.65;67.14
9861;DHT22;4969;52.304;4.968;2023-07-29T06:16:11;22.67;67.13
9861;DHT22;4969;52.304;4.968;2023-07-29T06:18:37;22.60;67.28
9861;DHT22;4969;52.304;4.968;2023-07-29T06:21:04;22.63;67.35
9861;DHT22;4969;52.304;4.968;2023-07-29T06:23:33;22.78;66.83
9861;DHT22;4969;52.304;4.968;2023-07-29T06:25:59;22.71;67.03
9861;DHT22;4969;52.304;4.968;2023-07-29T06:28:26;22.69;67.06
9861;DHT22;4969;52.304;4.968;2023-07-29T06:30:53;22.72;66.97
9861;DHT22;4969;52.304;4.968;2023-07-29T06:33:21;22.79;66.64
9861;DHT22;4969;52.304;4.968;2023-07-29T06:35:47;22.82;66.71
9861;DHT22;4969;52.304;4.968;2023-07-29T06:38:14;22.92;66.63
9861;DHT22;4969;52.304;4.968;2023-07-29T06:40:44;22.95;66.46
9861;DHT22;4969;52.304;4.968;2023-07-29T06:43:11;22.99;66.26
9861;DHT22;4969;52.304;4.968;2023-07-29T06:45:37;22.86;66.63
9861;DHT22;4969;52.304;4.968;2023-07-29T06:48:04;22.89;66.67
9861;DHT22;4969;52.304;4.968;2023-07-29T06:50:32;22.86;66.58
9861;DHT22;4969;52.304;4.968;2023-07-29T06:52:59;22.58;67.48
9861;DHT22;4969;52.304;4.968;2023-07-29T06:55:25;22.36;67.90
9861;DHT22;4969;52.304;4.968;2023-07-29T06:57:52;21.93;69.31
9861;DHT22;4969;52.304;4.968;2023-07-29T07:00:18;22.08;68.83
9861;DHT22;4969;52.304;4.968;2023-07-29T07:02:45;22.20;68.89
9861;DHT22;4969;52.304;4.968;2023-07-29T07:05:12;22.06;69.11
9861;DHT22;4969;52.304;4.968;2023-07-29T07:07:40;22.08;69.37
9861;DHT22;4969;52.304;4.968;2023-07-29T07:10:07;22.16;69.36
9861;DHT22;4969;52.304;4.968;2023-07-29T07:12:33;22.26;69.39
9861;DHT22;4969;52.304;4.968;2023-07-29T07:15:00;22.47;69.34
9861;DHT22;4969;52.304;4.968;2023-07-29T07:17:27;22.36;69.30
9861;DHT22;4969;52.304;4.968;2023-07-29T07:19:54;22.53;69.11
9861;DHT22;4969;52.304;4.968;2023-07-29T07:22:20;22.44;68.99
9861;DHT22;4969;52.304;4.968;2023-07-29T07:24:48;22.33;69.65
9861;DHT22;4969;52.304;4.968;2023-07-29T07:27:15;22.40;69.35
9861;DHT22;4969;52.304;4.968;2023-07-29T07:29:41;22.67;68.31
9861;DHT22;4969;52.304;4.968;2023-07-29T07:32:08;22.50;68.77
9861;DHT22;4969;52.304;4.968;2023-07-29T07:34:34;22.78;68.09
9861;DHT22;4969;52.304;4.968;2023-07-29T07:37:01;22.85;67.91
9861;DHT22;4969;52.304;4.968;2023-07-29T07:39:29;22.83;67.77
9861;DHT22;4969;52.304;4.968;2023-07-29T07:41:57;22.82;67.61
9861;DHT22;4969;52.304;4.968;2023-07-29T07:44:23;22.78;68.02
9861;DHT22;4969;52.304;4.968;2023-07-29T07:46:51;22.85;67.86
9861;DHT22;4969;52.304;4.968;2023-07-29T07:49:18;22.92;67.44
9861;DHT22;4969;52.304;4.968;2023-07-29T07:51:45;22.60;67.84
9861;DHT22;4969;52.304;4.968;2023-07-29T07:54:12;22.47;68.77
9861;DHT22;4969;52.304;4.968;2023-07-29T07:56:38;22.55;68.64
9861;DHT22;4969;52.304;4.968;2023-07-29T07:59:06;22.61;68.49
9861;DHT22;4969;52.304;4.968;2023-07-29T08:01:34;22.53;68.84
9861;DHT22;4969;52.304;4.968;2023-07-29T08:04:02;22.63;68.72
9861;DHT22;4969;52.304;4.968;2023-07-29T08:06:28;22.47;69.44
9861;DHT22;4969;52.304;4.968;2023-07-29T08:08:55;22.34;70.32
9861;DHT22;4969;52.304;4.968;2023-07-29T08:11:22;22.20;70.98
9861;DHT22;4969;52.304;4.968;2023-07-29T08:13:49;22.24;70.86
9861;DHT22;4969;52.304;4.968;2023-07-29T08:16:17;22.05;70.57
9861;DHT22;4969;52.304;4.968;2023-07-29T08:18:43;21.96;70.52
9861;DHT22;4969;52.304;4.968;2023-07-29T08:21:10;22.19;69.70
9861;DHT22;4969;52.304;4.968;2023-07-29T08:23:36;22.14;69.21
9861;DHT22;4969;52.304;4.968;2023-07-29T08:26:04;22.16;69.46
9861;DHT22;4969;52.304;4.968;2023-07-29T08:28:33;21.89;69.54
9861;DHT22;4969;52.304;4.968;2023-07-29T08:30:59;22.09;69.25
9861;DHT22;4969;52.304;4.968;2023-07-29T08:33:28;21.85;69.67
9861;DHT22;4969;52.304;4.968;2023-07-29T08:35:55;21.62;68.29
9861;DHT22;4969;52.304;4.968;2023-07-29T08:38:22;21.62;69.08
9861;DHT22;4969;52.304;4.968;2023-07-29T08:40:52;21.66;70.50
9861;DHT22;4969;52.304;4.968;2023-07-29T08:43:23;21.68;69.30
9861;DHT22;4969;52.304;4.968;2023-07-29T08:45:53;21.82;70.11
9861;DHT22;4969;52.304;4.968;2023-07-29T08:48:25;21.73;69.27
9861;DHT22;4969;52.304;4.968;2023-07-29T08:50:54;21.73;69.16
9861;DHT22;4969;52.304;4.968;2023-07-29T08:53:21;21.64;69.69
9861;DHT22;4969;52.304;4.968;2023-07-29T08:55:48;21.79;70.03
9861;DHT22;4969;52.304;4.968;2023-07-29T08:58:15;21.78;69.09
9861;DHT22;4969;52.304;4.968;2023-07-29T09:00:42;21.65;69.38
9861;DHT22;4969;52.304;4.968;2023-07-29T09:03:09;21.76;69.14
9861;DHT22;4969;52.304;4.968;2023-07-29T09:05:36;21.65;68.85
9861;DHT22;4969;52.304;4.968;2023-07-29T09:08:04;21.45;69.72
9861;DHT22;4969;52.304;4.968;2023-07-29T09:10:35;21.58;69.26
9861;DHT22;4969;52.304;4.968;2023-07-29T09:13:01;21.78;70.52
9861;DHT22;4969;52.304;4.968;2023-07-29T09:15:29;21.86;69.79
9861;DHT22;4969;52.304;4.968;2023-07-29T09:17:56;21.89;69.45
9861;DHT22;4969;52.304;4.968;2023-07-29T09:20:24;21.73;70.04
9861;DHT22;4969;52.304;4.968;2023-07-29T09:22:51;21.88;70.43
9861;DHT22;4969;52.304;4.968;2023-07-29T09:25:24;22.09;69.58
9861;DHT22;4969;52.304;4.968;2023-07-29T09:27:50;22.10;69.72
9861;DHT22;4969;52.304;4.968;2023-07-29T09:30:17;22.03;68.34
9861;DHT22;4969;52.304;4.968;2023-07-29T09:32:44;21.69;68.71
9861;DHT22;4969;52.304;4.968;2023-07-29T09:35:11;21.86;68.45
9861;DHT22;4969;52.304;4.968;2023-07-29T09:37:38;21.98;68.42
9861;DHT22;4969;52.304;4.968;2023-07-29T09:40:06;22.36;67.83
9861;DHT22;4969;52.304;4.968;2023-07-29T09:42:34;22.63;68.21
9861;DHT22;4969;52.304;4.968;2023-07-29T09:45:01;22.75;66.56
9861;DHT22;4969;52.304;4.968;2023-07-29T09:47:28;22.72;66.86
9861;DHT22;4969;52.304;4.968;2023-07-29T09:49:55;22.74;66.34
9861;DHT22;4969;52.304;4.968;2023-07-29T09:52:22;22.64;65.80
9861;DHT22;4969;52.304;4.968;2023-07-29T09:54:49;22.68;66.83
9861;DHT22;4969;52.304;4.968;2023-07-29T09:57:18;22.44;65.79
9861;DHT22;4969;52.304;4.968;2023-07-29T09:59:54;22.47;66.79
9861;DHT22;4969;52.304;4.968;2023-07-29T10:02:21;22.65;63.87
9861;DHT22;4969;52.304;4.968;2023-07-29T10:04:50;22.51;65.94
9861;DHT22;4969;52.304;4.968;2023-07-29T10:07:18;22.69;64.76
9861;DHT22;4969;52.304;4.968;2023-07-29T10:09:45;22.95;66.11
9861;DHT22;4969;52.304;4.968;2023-07-29T10:12:13;22.37;65.06
9861;DHT22;4969;52.304;4.968;2023-07-29T10:14:40;22.64;66.54
9861;DHT22;4969;52.304;4.968;2023-07-29T10:17:09;22.61;65.26
9861;DHT22;4969;52.304;4.968;2023-07-29T10:19:36;22.50;65.58
9861;DHT22;4969;52.304;4.968;2023-07-29T10:22:04;22.54;65.71
9861;DHT22;4969;52.304;4.968;2023-07-29T10:24:32;22.43;66.59
9861;DHT22;4969;52.304;4.968;2023-07-29T10:27:00;22.88;66.24
9861;DHT22;4969;52.304;4.968;2023-07-29T10:29:31;23.13;65.93
9861;DHT22;4969;52.304;4.968;2023-07-29T10:32:01;22.82;65.48
9861;DHT22;4969;52.304;4.968;2023-07-29T10:34:30;22.89;64.88
9861;DHT22;4969;52.304;4.968;2023-07-29T10:36:57;22.98;65.71
9861;DHT22;4969;52.304;4.968;2023-07-29T10:39:24;22.96;66.09
9861;DHT22;4969;52.304;4.968;2023-07-29T10:41:55;22.83;65.95
9861;DHT22;4969;52.304;4.968;2023-07-29T10:44:47;22.82;66.19
9861;DHT22;4969;52.304;4.968;2023-07-29T10:47:16;23.00;66.26
9861;DHT22;4969;52.304;4.968;2023-07-29T10:49:47;23.51;65.66
9861;DHT22;4969;52.304;4.968;2023-07-29T10:52:14;23.44;65.09
9861;DHT22;4969;52.304;4.968;2023-07-29T10:54:42;23.55;65.43
9861;DHT22;4969;52.304;4.968;2023-07-29T10:57:12;23.77;65.92
9861;DHT22;4969;52.304;4.968;2023-07-29T10:59:39;23.89;64.90
9861;DHT22;4969;52.304;4.968;2023-07-29T11:02:12;24.03;64.75
9861;DHT22;4969;52.304;4.968;2023-07-29T11:04:51;24.21;64.33
9861;DHT22;4969;52.304;4.968;2023-07-29T11:07:19;24.29;64.26
9861;DHT22;4969;52.304;4.968;2023-07-29T11:09:54;24.40;63.56
9861;DHT22;4969;52.304;4.968;2023-07-29T11:12:44;24.23;64.18
9861;DHT22;4969;52.304;4.968;2023-07-29T11:15:21;24.10;64.29
9861;DHT22;4969;52.304;4.968;2023-07-29T11:17:49;23.79;64.60
9861;DHT22;4969;52.304;4.968;2023-07-29T11:20:19;24.03;65.41
9861;DHT22;4969;52.304;4.968;2023-07-29T11:22:47;24.24;65.12
9861;DHT22;4969;52.304;4.968;2023-07-29T11:25:15;24.41;64.71
9861;DHT22;4969;52.304;4.968;2023-07-29T11:27:43;24.39;64.67
9861;DHT22;4969;52.304;4.968;2023-07-29T11:30:11;24.50;63.90
9861;DHT22;4969;52.304;4.968;2023-07-29T11:32:39;24.35;63.93
9861;DHT22;4969;52.304;4.968;2023-07-29T11:35:08;24.20;64.72
9861;DHT22;4969;52.304;4.968;2023-07-29T11:37:37;24.29;64.59
9861;DHT22;4969;52.304;4.968;2023-07-29T11:40:05;24.37;64.07
9861;DHT22;4969;52.304;4.968;2023-07-29T11:42:32;24.72;63.65
9861;DHT22;4969;52.304;4.968;2023-07-29T11:45:00;24.69;62.14
9861;DHT22;4969;52.304;4.968;2023-07-29T11:47:26;24.74;62.71
9861;DHT22;4969;52.304;4.968;2023-07-29T11:49:53;24.78;62.75
9861;DHT22;4969;52.304;4.968;2023-07-29T11:52:20;24.84;62.40
9861;DHT22;4969;52.304;4.968;2023-07-29T11:54:48;24.85;62.63
9861;DHT22;4969;52.304;4.968;2023-07-29T11:57:16;24.76;62.67
9861;DHT22;4969;52.304;4.968;2023-07-29T11:59:43;24.68;62.94
9861;DHT22;4969;52.304;4.968;2023-07-29T12:02:12;24.63;63.36
9861;DHT22;4969;52.304;4.968;2023-07-29T12:04:39;24.56;63.62
9861;DHT22;4969;52.304;4.968;2023-07-29T12:07:06;24.33;64.49
9861;DHT22;4969;52.304;4.968;2023-07-29T12:09:33;24.14;64.99
9861;DHT22;4969;52.304;4.968;2023-07-29T12:12:02;23.75;66.10
9861;DHT22;4969;52.304;4.968;2023-07-29T12:14:29;23.74;66.41
9861;DHT22;4969;52.304;4.968;2023-07-29T12:16:56;23.62;66.31
9861;DHT22;4969;52.304;4.968;2023-07-29T12:19:31;23.46;67.17
9861;DHT22;4969;52.304;4.968;2023-07-29T12:21:58;23.48;67.76
9861;DHT22;4969;52.304;4.968;2023-07-29T12:24:24;23.58;67.61
9861;DHT22;4969;52.304;4.968;2023-07-29T12:26:51;23.67;67.73
9861;DHT22;4969;52.304;4.968;2023-07-29T12:29:19;23.41;67.55
9861;DHT22;4969;52.304;4.968;2023-07-29T12:31:46;23.15;68.32
9861;DHT22;4969;52.304;4.968;2023-07-29T12:34:17;23.31;68.59
9861;DHT22;4969;52.304;4.968;2023-07-29T12:36:45;23.23;68.24
9861;DHT22;4969;52.304;4.968;2023-07-29T12:39:19;22.85;69.04
9861;DHT22;4969;52.304;4.968;2023-07-29T12:41:46;22.91;69.71
9861;DHT22;4969;52.304;4.968;2023-07-29T12:44:13;23.33;68.72
9861;DHT22;4969;52.304;4.968;2023-07-29T12:46:41;23.31;68.48
9861;DHT22;4969;52.304;4.968;2023-07-29T12:49:08;23.91;66.39
9861;DHT22;4969;52.304;4.968;2023-07-29T12:51:35;24.13;66.12
9861;DHT22;4969;52.304;4.968;2023-07-29T12:54:02;24.08;66.12
9861;DHT22;4969;52.304;4.968;2023-07-29T12:56:29;24.05;66.30
9861;DHT22;4969;52.304;4.968;2023-07-29T12:58:56;24.08;66.37
9861;DHT22;4969;52.304;4.968;2023-07-29T13:01:23;24.17;65.26
9861;DHT22;4969;52.304;4.968;2023-07-29T13:03:51;24.32;64.29
9861;DHT22;4969;52.304;4.968;2023-07-29T13:06:17;24.24;64.62
9861;DHT22;4969;52.304;4.968;2023-07-29T13:08:44;24.23;64.87
9861;DHT22;4969;52.304;4.968;2023-07-29T13:11:11;24.17;64.32
9861;DHT22;4969;52.304;4.968;2023-07-29T13:13:38;23.88;65.02
9861;DHT22;4969;52.304;4.968;2023-07-29T13:16:04;23.79;65.87
9861;DHT22;4969;52.304;4.968;2023-07-29T13:18:32;24.12;65.30
9861;DHT22;4969;52.304;4.968;2023-07-29T13:21:00;24.26;64.62
9861;DHT22;4969;52.304;4.968;2023-07-29T13:23:27;24.16;64.86
9861;DHT22;4969;52.304;4.968;2023-07-29T13:25:55;24.21;64.15
9861;DHT22;4969;52.304;4.968;2023-07-29T13:28:21;23.92;63.34
9861;DHT22;4969;52.304;4.968;2023-07-29T13:30:48;24.33;64.42
9861;DHT22;4969;52.304;4.968;2023-07-29T13:33:15;24.23;63.58
9861;DHT22;4969;52.304;4.968;2023-07-29T13:35:42;24.08;63.33
9861;DHT22;4969;52.304;4.968;2023-07-29T13:38:10;24.39;64.35
9861;DHT22;4969;52.304;4.968;2023-07-29T13:40:37;24.74;63.79
9861;DHT22;4969;52.304;4.968;2023-07-29T13:43:03;24.75;63.23
9861;DHT22;4969;52.304;4.968;2023-07-29T13:45:30;24.79;62.63
9861;DHT22;4969;52.304;4.968;2023-07-29T13:47:57;24.71;62.40
9861;DHT22;4969;52.304;4.968;2023-07-29T13:50:24;24.76;63.20
9861;DHT22;4969;52.304;4.968;2023-07-29T13:52:50;24.75;60.75
9861;DHT22;4969;52.304;4.968;2023-07-29T13:55:18;24.54;62.72
9861;DHT22;4969;52.304;4.968;2023-07-29T13:57:45;24.58;63.30
9861;DHT22;4969;52.304;4.968;2023-07-29T14:00:12;24.57;62.34
9861;DHT22;4969;52.304;4.968;2023-07-29T14:02:38;24.71;63.13
9861;DHT22;4969;52.304;4.968;2023-07-29T14:05:06;24.86;62.38
9861;DHT22;4969;52.304;4.968;2023-07-29T14:07:33;24.79;62.07
9861;DHT22;4969;52.304;4.968;2023-07-29T14:09:59;24.76;62.09
9861;DHT22;4969;52.304;4.968;2023-07-29T14:12:27;24.65;61.85
9861;DHT22;4969;52.304;4.968;2023-07-29T14:14:54;24.91;62.25
9861;DHT22;4969;52.304;4.968;2023-07-29T14:17:20;25.02;62.22
9861;DHT22;4969;52.304;4.968;2023-07-29T14:19:47;24.91;61.09
9861;DHT22;4969;52.304;4.968;2023-07-29T14:22:13;24.95;60.55
9861;DHT22;4969;52.304;4.968;2023-07-29T14:24:40;24.96;60.85
9861;DHT22;4969;52.304;4.968;2023-07-29T14:27:07;25.08;60.60
9861;DHT22;4969;52.304;4.968;2023-07-29T14:29:35;25.02;59.13
9861;DHT22;4969;52.304;4.968;2023-07-29T14:32:01;25.03;61.03
9861;DHT22;4969;52.304;4.968;2023-07-29T14:34:28;24.99;59.22
9861;DHT22;4969;52.304;4.968;2023-07-29T14:36:55;24.94;61.28
9861;DHT22;4969;52.304;4.968;2023-07-29T14:39:22;24.96;60.19
9861;DHT22;4969;52.304;4.968;2023-07-29T14:41:48;25.08;60.65
9861;DHT22;4969;52.304;4.968;2023-07-29T14:44:15;25.12;59.03
9861;DHT22;4969;52.304;4.968;2023-07-29T14:46:43;25.12;59.86
9861;DHT22;4969;52.304;4.968;2023-07-29T14:49:09;25.01;58.55
9861;DHT22;4969;52.304;4.968;2023-07-29T14:51:36;24.91;59.52
9861;DHT22;4969;52.304;4.968;2023-07-29T14:54:03;25.03;60.76
9861;DHT22;4969;52.304;4.968;2023-07-29T14:56:30;25.08;60.06
9861;DHT22;4969;52.304;4.968;2023-07-29T14:58:57;24.95;59.46
9861;DHT22;4969;52.304;4.968;2023-07-29T15:01:23;24.76;58.69
9861;DHT22;4969;52.304;4.968;2023-07-29T15:03:51;24.72;58.84
9861;DHT22;4969;52.304;4.968;2023-07-29T15:06:18;24.71;58.64
9861;DHT22;4969;52.304;4.968;2023-07-29T15:08:44;24.53;58.30
9861;DHT22;4969;52.304;4.968;2023-07-29T15:11:11;24.58;58.40
9861;DHT22;4969;52.304;4.968;2023-07-29T15:13:37;24.67;58.86
9861;DHT22;4969;52.304;4.968;2023-07-29T15:16:05;24.56;57.52
9861;DHT22;4969;52.304;4.968;2023-07-29T15:18:31;24.60;58.84
9861;DHT22;4969;52.304;4.968;2023-07-29T15:21:00;24.86;58.60
9861;DHT22;4969;52.304;4.968;2023-07-29T15:23:27;24.76;56.95
9861;DHT22;4969;52.304;4.968;2023-07-29T15:25:54;24.72;59.61
9861;DHT22;4969;52.304;4.968;2023-07-29T15:28:20;24.74;56.04
9861;DHT22;4969;52.304;4.968;2023-07-29T15:30:47;24.50;56.16
9861;DHT22;4969;52.304;4.968;2023-07-29T15:33:14;24.29;57.56
9861;DHT22;4969;52.304;4.968;2023-07-29T15:35:40;24.17;55.94
9861;DHT22;4969;52.304;4.968;2023-07-29T15:38:08;24.13;56.41
9861;DHT22;4969;52.304;4.968;2023-07-29T15:40:35;24.27;60.41
9861;DHT22;4969;52.304;4.968;2023-07-29T15:43:02;24.51;56.87
9861;DHT22;4969;52.304;4.968;2023-07-29T15:45:28;24.37;57.31
9861;DHT22;4969;52.304;4.968;2023-07-29T15:47:55;24.46;58.72
9861;DHT22;4969;52.304;4.968;2023-07-29T15:50:22;24.48;58.30
9861;DHT22;4969;52.304;4.968;2023-07-29T15:52:48;24.30;57.82
9861;DHT22;4969;52.304;4.968;2023-07-29T15:55:16;24.46;56.73
9861;DHT22;4969;52.304;4.968;2023-07-29T15:57:43;24.06;56.54
9861;DHT22;4969;52.304;4.968;2023-07-29T16:00:11;24.05;58.83
9861;DHT22;4969;52.304;4.968;2023-07-29T16:02:38;24.13;58.74